sensor_id;sensor_type;location;lat;lon;timestamp;temperature;humidity
61979;DHT22;47938;48.176;16.414;2023-02-01T00:01:34;4.20;93.30
61979;DHT22;47938;48.176;16.414;2023-02-01T00:04:00;4.20;92.90
61979;DHT22;47938;48.176;16.414;2023-02-01T00:06:26;4.20;93.20
61979;DHT22;47938;48.176;16.414;2023-02-01T00:08:55;4.20;93.10
61979;DHT22;47938;48.176;16.414;2023-02-01T00:11:21;4.20;93.30
61979;DHT22;47938;48.176;16.414;2023-02-01T00:13:47;4.20;93.00
61979;DHT22;47938;48.176;16.414;2023-02-01T00:16:15;4.20;93.00
61979;DHT22;47938;48.176;16.414;2023-02-01T00:18:41;4.30;92.60
61979;DHT22;47938;48.176;16.414;2023-02-01T00:21:07;4.30;92.50
61979;DHT22;47938;48.176;16.414;2023-02-01T00:23:36;4.20;92.90
61979;DHT22;47938;48.176;16.414;2023-02-01T00:26:03;4.20;92.90
61979;DHT22;47938;48.176;16.414;2023-02-01T00:28:29;4.30;92.30
61979;DHT22;47938;48.176;16.414;2023-02-01T00:30:59;4.30;92.10
61979;DHT22;47938;48.176;16.414;2023-02-01T00:33:24;4.30;92.10
61979;DHT22;47938;48.176;16.414;2023-02-01T00:35:50;4.30;91.60
61979;DHT22;47938;48.176;16.414;2023-02-01T00:38:16;4.30;91.30
61979;DHT22;47938;48.176;16.414;2023-02-01T00:40:42;4.30;91.50
61979;DHT22;47938;48.176;16.414;2023-02-01T00:43:07;4.30;91.60
61979;DHT22;47938;48.176;16.414;2023-02-01T00:45:33;4.30;91.30
61979;DHT22;47938;48.176;16.414;2023-02-01T00:47:59;4.30;91.10
61979;DHT22;47938;48.176;16.414;2023-02-01T00:50:24;4.40;90.90
61979;DHT22;47938;48.176;16.414;2023-02-01T00:52:50;4.40;90.50
61979;DHT22;47938;48.176;16.414;2023-02-01T00:55:15;4.50;90.00
61979;DHT22;47938;48.176;16.414;2023-02-01T00:57:41;4.50;89.70
61979;DHT22;47938;48.176;16.414;2023-02-01T01:00:07;4.50;90.10
61979;DHT22;47938;48.176;16.414;2023-02-01T01:02:33;4.40;90.30
61979;DHT22;47938;48.176;16.414;2023-02-01T01:04:59;4.50;90.50
61979;DHT22;47938;48.176;16.414;2023-02-01T01:07:24;4.50;90.60
61979;DHT22;47938;48.176;16.414;2023-02-01T01:09:50;4.40;90.60
61979;DHT22;47938;48.176;16.414;2023-02-01T01:12:15;4.50;90.60
61979;DHT22;47938;48.176;16.414;2023-02-01T01:14:41;4.40;90.70
61979;DHT22;47938;48.176;16.414;2023-02-01T01:17:06;4.50;90.50
61979;DHT22;47938;48.176;16.414;2023-02-01T01:19:32;4.50;90.60
61979;DHT22;47938;48.176;16.414;2023-02-01T01:21:58;4.50;90.40
61979;DHT22;47938;48.176;16.414;2023-02-01T01:24:23;4.50;90.20
61979;DHT22;47938;48.176;16.414;2023-02-01T01:26:49;4.50;90.10
61979;DHT22;47938;48.176;16.414;2023-02-01T01:29:14;4.50;90.20
61979;DHT22;47938;48.176;16.414;2023-02-01T01:31:40;4.50;89.40
61979;DHT22;47938;48.176;16.414;2023-02-01T01:34:05;4.60;89.10
61979;DHT22;47938;48.176;16.414;2023-02-01T01:36:31;4.60;88.80
61979;DHT22;47938;48.176;16.414;2023-02-01T01:38:57;4.60;88.10
61979;DHT22;47938;48.176;16.414;2023-02-01T01:41:25;4.50;88.80
61979;DHT22;47938;48.176;16.414;2023-02-01T01:46:25;4.50;88.80
61979;DHT22;47938;48.176;16.414;2023-02-01T01:49:14;4.60;89.20
61979;DHT22;47938;48.176;16.414;2023-02-01T01:51:50;4.50;89.10
61979;DHT22;47938;48.176;16.414;2023-02-01T01:54:43;4.60;88.80
61979;DHT22;47938;48.176;16.414;2023-02-01T01:57:24;4.60;89.70
61979;DHT22;47938;48.176;16.414;2023-02-01T02:00:04;4.60;90.10
61979;DHT22;47938;48.176;16.414;2023-02-01T02:02:30;4.60;90.20
61979;DHT22;47938;48.176;16.414;2023-02-01T02:04:56;4.50;90.30
61979;DHT22;47938;48.176;16.414;2023-02-01T02:07:35;4.50;90.60
61979;DHT22;47938;48.176;16.414;2023-02-01T02:10:03;4.50;90.80
61979;DHT22;47938;48.176;16.414;2023-02-01T02:12:29;4.50;90.80
61979;DHT22;47938;48.176;16.414;2023-02-01T02:14:55;4.50;90.80
61979;DHT22;47938;48.176;16.414;2023-02-01T02:17:38;4.50;91.00
61979;DHT22;47938;48.176;16.414;2023-02-01T02:26:24;4.60;91.20
61979;DHT22;47938;48.176;16.414;2023-02-01T02:32:06;4.60;91.20
61979;DHT22;47938;48.176;16.414;2023-02-01T02:34:42;4.60;91.30
61979;DHT22;47938;48.176;16.414;2023-02-01T02:40:04;4.60;91.60
61979;DHT22;47938;48.176;16.414;2023-02-01T02:42:41;4.70;91.30
61979;DHT22;47938;48.176;16.414;2023-02-01T02:45:20;4.70;91.10
61979;DHT22;47938;48.176;16.414;2023-02-01T02:48:00;4.60;91.50
61979;DHT22;47938;48.176;16.414;2023-02-01T02:50:34;4.70;91.30
61979;DHT22;47938;48.176;16.414;2023-02-01T02:53:08;4.70;91.50
61979;DHT22;47938;48.176;16.414;2023-02-01T02:55:36;4.70;92.00
61979;DHT22;47938;48.176;16.414;2023-02-01T02:58:05;4.60;92.30
61979;DHT22;47938;48.176;16.414;2023-02-01T03:00:33;4.60;92.60
61979;DHT22;47938;48.176;16.414;2023-02-01T03:03:00;4.70;92.40
61979;DHT22;47938;48.176;16.414;2023-02-01T03:05:35;4.70;92.60
61979;DHT22;47938;48.176;16.414;2023-02-01T03:08:20;4.70;92.60
61979;DHT22;47938;48.176;16.414;2023-02-01T03:10:57;4.70;93.00
61979;DHT22;47938;48.176;16.414;2023-02-01T03:16:40;4.70;93.00
61979;DHT22;47938;48.176;16.414;2023-02-01T03:19:29;4.60;93.30
61979;DHT22;47938;48.176;16.414;2023-02-01T03:22:00;4.60;93.70
61979;DHT22;47938;48.176;16.414;2023-02-01T03:24:34;4.50;93.50
61979;DHT22;47938;48.176;16.414;2023-02-01T03:27:07;4.50;94.00
61979;DHT22;47938;48.176;16.414;2023-02-01T03:29:44;4.50;94.80
61979;DHT22;47938;48.176;16.414;2023-02-01T03:32:10;4.50;94.40
61979;DHT22;47938;48.176;16.414;2023-02-01T03:34:36;4.50;94.30
61979;DHT22;47938;48.176;16.414;2023-02-01T03:37:05;4.60;93.80
61979;DHT22;47938;48.176;16.414;2023-02-01T03:39:57;4.50;94.40
61979;DHT22;47938;48.176;16.414;2023-02-01T03:42:26;4.40;94.70
61979;DHT22;47938;48.176;16.414;2023-02-01T03:44:54;4.40;94.50
61979;DHT22;47938;48.176;16.414;2023-02-01T03:47:28;4.40;93.90
61979;DHT22;47938;48.176;16.414;2023-02-01T03:50:08;4.40;93.70
61979;DHT22;47938;48.176;16.414;2023-02-01T03:52:41;4.40;93.70
61979;DHT22;47938;48.176;16.414;2023-02-01T03:55:08;4.50;93.40
61979;DHT22;47938;48.176;16.414;2023-02-01T03:57:43;4.50;92.70
61979;DHT22;47938;48.176;16.414;2023-02-01T04:00:17;4.60;92.30
61979;DHT22;47938;48.176;16.414;2023-02-01T04:02:43;4.60;92.50
61979;DHT22;47938;48.176;16.414;2023-02-01T04:05:09;4.50;92.80
61979;DHT22;47938;48.176;16.414;2023-02-01T04:07:35;4.50;92.60
61979;DHT22;47938;48.176;16.414;2023-02-01T04:10:00;4.50;92.80
61979;DHT22;47938;48.176;16.414;2023-02-01T04:12:26;4.50;93.50
61979;DHT22;47938;48.176;16.414;2023-02-01T04:14:52;4.60;92.60
61979;DHT22;47938;48.176;16.414;2023-02-01T04:17:17;4.60;92.20
61979;DHT22;47938;48.176;16.414;2023-02-01T04:19:43;4.60;92.30
61979;DHT22;47938;48.176;16.414;2023-02-01T04:22:08;4.60;92.10
61979;DHT22;47938;48.176;16.414;2023-02-01T04:24:34;4.60;92.00
61979;DHT22;47938;48.176;16.414;2023-02-01T04:26:59;4.70;91.70
61979;DHT22;47938;48.176;16.414;2023-02-01T04:29:26;4.70;91.50
61979;DHT22;47938;48.176;16.414;2023-02-01T04:31:51;4.60;91.60
61979;DHT22;47938;48.176;16.414;2023-02-01T04:34:17;4.70;91.60
61979;DHT22;47938;48.176;16.414;2023-02-01T04:36:42;4.70;91.30
61979;DHT22;47938;48.176;16.414;2023-02-01T04:39:09;4.70;91.30
61979;DHT22;47938;48.176;16.414;2023-02-01T04:41:35;4.80;91.60
61979;DHT22;47938;48.176;16.414;2023-02-01T04:44:00;4.80;91.30
61979;DHT22;47938;48.176;16.414;2023-02-01T04:46:26;4.80;91.60
61979;DHT22;47938;48.176;16.414;2023-02-01T04:48:52;4.90;91.80
61979;DHT22;47938;48.176;16.414;2023-02-01T04:51:17;4.90;91.80
61979;DHT22;47938;48.176;16.414;2023-02-01T04:53:43;4.90;92.00
61979;DHT22;47938;48.176;16.414;2023-02-01T04:56:09;4.90;92.00
61979;DHT22;47938;48.176;16.414;2023-02-01T04:58:34;4.90;92.30
61979;DHT22;47938;48.176;16.414;2023-02-01T05:01:03;4.90;92.60
61979;DHT22;47938;48.176;16.414;2023-02-01T05:03:28;4.90;92.40
61979;DHT22;47938;48.176;16.414;2023-02-01T05:05:54;4.90;92.40
61979;DHT22;47938;48.176;16.414;2023-02-01T05:08:20;4.90;92.50
61979;DHT22;47938;48.176;16.414;2023-02-01T05:10:45;5.00;92.30
61979;DHT22;47938;48.176;16.414;2023-02-01T05:13:11;5.00;92.30
61979;DHT22;47938;48.176;16.414;2023-02-01T05:15:36;5.10;92.10
61979;DHT22;47938;48.176;16.414;2023-02-01T05:18:02;5.00;92.60
61979;DHT22;47938;48.176;16.414;2023-02-01T05:20:28;5.10;93.10
61979;DHT22;47938;48.176;16.414;2023-02-01T05:22:54;5.10;92.90
61979;DHT22;47938;48.176;16.414;2023-02-01T05:25:19;5.10;93.10
61979;DHT22;47938;48.176;16.414;2023-02-01T05:27:45;5.10;93.30
61979;DHT22;47938;48.176;16.414;2023-02-01T05:30:11;5.20;93.90
61979;DHT22;47938;48.176;16.414;2023-02-01T05:32:37;5.20;94.00
61979;DHT22;47938;48.176;16.414;2023-02-01T05:35:02;5.30;94.70
61979;DHT22;47938;48.176;16.414;2023-02-01T05:37:28;5.30;94.80
61979;DHT22;47938;48.176;16.414;2023-02-01T05:39:54;5.30;96.40
61979;DHT22;47938;48.176;16.414;2023-02-01T05:42:19;5.20;97.20
61979;DHT22;47938;48.176;16.414;2023-02-01T05:44:45;5.20;97.50
61979;DHT22;47938;48.176;16.414;2023-02-01T05:47:11;5.30;97.10
61979;DHT22;47938;48.176;16.414;2023-02-01T05:49:36;5.30;96.80
61979;DHT22;47938;48.176;16.414;2023-02-01T05:52:02;5.20;97.40
61979;DHT22;47938;48.176;16.414;2023-02-01T05:54:27;5.30;97.00
61979;DHT22;47938;48.176;16.414;2023-02-01T05:56:53;5.20;96.90
61979;DHT22;47938;48.176;16.414;2023-02-01T05:59:19;5.20;96.80
61979;DHT22;47938;48.176;16.414;2023-02-01T06:01:45;5.20;96.20
61979;DHT22;47938;48.176;16.414;2023-02-01T06:04:10;5.20;96.40
61979;DHT22;47938;48.176;16.414;2023-02-01T06:06:36;5.20;95.50
61979;DHT22;47938;48.176;16.414;2023-02-01T06:09:02;5.20;95.20
61979;DHT22;47938;48.176;16.414;2023-02-01T06:11:28;5.20;94.80
61979;DHT22;47938;48.176;16.414;2023-02-01T06:13:53;5.20;94.30
61979;DHT22;47938;48.176;16.414;2023-02-01T06:16:19;5.20;94.50
61979;DHT22;47938;48.176;16.414;2023-02-01T06:18:45;5.30;93.90
61979;DHT22;47938;48.176;16.414;2023-02-01T06:21:10;5.30;93.40
61979;DHT22;47938;48.176;16.414;2023-02-01T06:23:36;5.30;93.50
61979;DHT22;47938;48.176;16.414;2023-02-01T06:26:04;5.30;94.20
61979;DHT22;47938;48.176;16.414;2023-02-01T06:28:31;5.30;93.10
61979;DHT22;47938;48.176;16.414;2023-02-01T06:30:57;5.40;92.70
61979;DHT22;47938;48.176;16.414;2023-02-01T06:33:24;5.50;92.90
61979;DHT22;47938;48.176;16.414;2023-02-01T06:35:57;5.50;92.40
61979;DHT22;47938;48.176;16.414;2023-02-01T06:38:23;5.40;92.40
61979;DHT22;47938;48.176;16.414;2023-02-01T06:40:53;5.50;92.00
61979;DHT22;47938;48.176;16.414;2023-02-01T06:43:26;5.50;91.90
61979;DHT22;47938;48.176;16.414;2023-02-01T06:45:52;5.60;91.40
61979;DHT22;47938;48.176;16.414;2023-02-01T06:48:18;5.70;91.10
61979;DHT22;47938;48.176;16.414;2023-02-01T06:50:44;5.90;89.80
61979;DHT22;47938;48.176;16.414;2023-02-01T06:53:10;6.00;87.50
61979;DHT22;47938;48.176;16.414;2023-02-01T06:55:36;6.10;84.70
61979;DHT22;47938;48.176;16.414;2023-02-01T06:58:01;6.20;84.50
61979;DHT22;47938;48.176;16.414;2023-02-01T07:00:28;6.20;84.60
61979;DHT22;47938;48.176;16.414;2023-02-01T07:02:54;6.30;85.70
61979;DHT22;47938;48.176;16.414;2023-02-01T07:05:20;6.30;86.20
61979;DHT22;47938;48.176;16.414;2023-02-01T07:07:45;6.10;89.10
61979;DHT22;47938;48.176;16.414;2023-02-01T07:10:11;6.10;89.60
61979;DHT22;47938;48.176;16.414;2023-02-01T07:12:36;6.00;91.10
61979;DHT22;47938;48.176;16.414;2023-02-01T07:15:03;6.00;91.80
61979;DHT22;47938;48.176;16.414;2023-02-01T07:17:29;6.10;91.10
61979;DHT22;47938;48.176;16.414;2023-02-01T07:19:55;6.00;91.10
61979;DHT22;47938;48.176;16.414;2023-02-01T07:22:21;6.00;90.20
61979;DHT22;47938;48.176;16.414;2023-02-01T07:24:46;6.00;88.20
61979;DHT22;47938;48.176;16.414;2023-02-01T07:27:12;6.00;89.40
61979;DHT22;47938;48.176;16.414;2023-02-01T07:29:38;6.10;87.80
61979;DHT22;47938;48.176;16.414;2023-02-01T07:32:04;6.10;88.10
61979;DHT22;47938;48.176;16.414;2023-02-01T07:34:29;6.10;88.60
61979;DHT22;47938;48.176;16.414;2023-02-01T07:36:55;6.20;86.30
61979;DHT22;47938;48.176;16.414;2023-02-01T07:39:20;6.30;85.00
61979;DHT22;47938;48.176;16.414;2023-02-01T07:41:46;6.30;84.70
61979;DHT22;47938;48.176;16.414;2023-02-01T07:44:12;6.30;85.20
61979;DHT22;47938;48.176;16.414;2023-02-01T07:46:37;6.20;85.20
61979;DHT22;47938;48.176;16.414;2023-02-01T07:49:03;6.30;84.60
61979;DHT22;47938;48.176;16.414;2023-02-01T07:51:29;6.20;84.30
61979;DHT22;47938;48.176;16.414;2023-02-01T07:53:54;6.20;83.90
61979;DHT22;47938;48.176;16.414;2023-02-01T07:56:20;6.20;85.10
61979;DHT22;47938;48.176;16.414;2023-02-01T07:58:50;6.30;82.50
61979;DHT22;47938;48.176;16.414;2023-02-01T08:01:19;6.30;83.00
61979;DHT22;47938;48.176;16.414;2023-02-01T08:03:46;6.30;82.80
61979;DHT22;47938;48.176;16.414;2023-02-01T08:06:11;6.20;82.30
61979;DHT22;47938;48.176;16.414;2023-02-01T08:08:37;6.40;82.60
61979;DHT22;47938;48.176;16.414;2023-02-01T08:11:05;6.50;81.40
61979;DHT22;47938;48.176;16.414;2023-02-01T08:13:31;6.50;82.40
61979;DHT22;47938;48.176;16.414;2023-02-01T08:16:03;6.50;84.10
61979;DHT22;47938;48.176;16.414;2023-02-01T08:18:29;6.40;85.90
61979;DHT22;47938;48.176;16.414;2023-02-01T08:20:55;6.40;87.90
61979;DHT22;47938;48.176;16.414;2023-02-01T08:23:22;6.40;89.00
61979;DHT22;47938;48.176;16.414;2023-02-01T08:25:48;6.30;90.00
61979;DHT22;47938;48.176;16.414;2023-02-01T08:28:14;6.40;89.10
61979;DHT22;47938;48.176;16.414;2023-02-01T08:30:40;6.40;88.10
61979;DHT22;47938;48.176;16.414;2023-02-01T08:33:05;6.50;85.40
61979;DHT22;47938;48.176;16.414;2023-02-01T08:35:32;6.50;85.80
61979;DHT22;47938;48.176;16.414;2023-02-01T08:37:58;6.60;84.20
61979;DHT22;47938;48.176;16.414;2023-02-01T08:40:23;6.70;83.80
61979;DHT22;47938;48.176;16.414;2023-02-01T08:42:49;6.90;82.30
61979;DHT22;47938;48.176;16.414;2023-02-01T08:45:14;7.00;80.30
61979;DHT22;47938;48.176;16.414;2023-02-01T08:47:40;7.10;80.00
61979;DHT22;47938;48.176;16.414;2023-02-01T08:50:06;7.00;77.00
61979;DHT22;47938;48.176;16.414;2023-02-01T08:52:32;7.00;76.40
61979;DHT22;47938;48.176;16.414;2023-02-01T08:54:57;6.90;77.10
61979;DHT22;47938;48.176;16.414;2023-02-01T08:57:23;6.90;75.90
61979;DHT22;47938;48.176;16.414;2023-02-01T08:59:49;7.00;76.30
61979;DHT22;47938;48.176;16.414;2023-02-01T09:02:15;6.90;76.10
61979;DHT22;47938;48.176;16.414;2023-02-01T09:04:41;6.80;74.30
61979;DHT22;47938;48.176;16.414;2023-02-01T09:07:08;7.00;75.10
61979;DHT22;47938;48.176;16.414;2023-02-01T09:09:34;7.00;74.40
61979;DHT22;47938;48.176;16.414;2023-02-01T09:11:59;7.00;74.40
61979;DHT22;47938;48.176;16.414;2023-02-01T09:14:25;6.90;73.80
61979;DHT22;47938;48.176;16.414;2023-02-01T09:16:51;6.90;74.30
61979;DHT22;47938;48.176;16.414;2023-02-01T09:19:16;6.80;74.90
61979;DHT22;47938;48.176;16.414;2023-02-01T09:21:42;7.00;75.10
61979;DHT22;47938;48.176;16.414;2023-02-01T09:24:10;7.00;76.80
61979;DHT22;47938;48.176;16.414;2023-02-01T09:26:36;6.90;78.20
61979;DHT22;47938;48.176;16.414;2023-02-01T09:29:02;6.90;80.40
61979;DHT22;47938;48.176;16.414;2023-02-01T09:31:29;6.90;81.70
61979;DHT22;47938;48.176;16.414;2023-02-01T09:33:54;6.90;80.20
61979;DHT22;47938;48.176;16.414;2023-02-01T09:36:20;6.90;79.70
61979;DHT22;47938;48.176;16.414;2023-02-01T09:38:46;6.90;79.60
61979;DHT22;47938;48.176;16.414;2023-02-01T09:44:54;7.00;78.80
61979;DHT22;47938;48.176;16.414;2023-02-01T09:47:25;6.90;80.40
61979;DHT22;47938;48.176;16.414;2023-02-01T09:53:25;6.80;83.00
61979;DHT22;47938;48.176;16.414;2023-02-01T09:55:42;6.80;85.30
61979;DHT22;47938;48.176;16.414;2023-02-01T10:00:59;6.40;90.30
61979;DHT22;47938;48.176;16.414;2023-02-01T10:03:29;6.50;89.00
61979;DHT22;47938;48.176;16.414;2023-02-01T10:17:04;6.80;89.00
61979;DHT22;47938;48.176;16.414;2023-02-01T10:19:50;7.00;86.90
61979;DHT22;47938;48.176;16.414;2023-02-01T10:22:45;7.00;85.60
61979;DHT22;47938;48.176;16.414;2023-02-01T10:25:29;7.00;84.30
61979;DHT22;47938;48.176;16.414;2023-02-01T10:27:57;7.00;83.10
61979;DHT22;47938;48.176;16.414;2023-02-01T10:30:29;7.10;81.40
61979;DHT22;47938;48.176;16.414;2023-02-01T10:33:05;7.30;81.60
61979;DHT22;47938;48.176;16.414;2023-02-01T10:35:34;7.40;78.20
61979;DHT22;47938;48.176;16.414;2023-02-01T10:38:02;7.40;78.00
61979;DHT22;47938;48.176;16.414;2023-02-01T10:40:28;7.60;79.90
61979;DHT22;47938;48.176;16.414;2023-02-01T10:42:59;7.80;77.00
61979;DHT22;47938;48.176;16.414;2023-02-01T10:45:28;8.00;73.30
61979;DHT22;47938;48.176;16.414;2023-02-01T10:47:55;8.10;73.80
61979;DHT22;47938;48.176;16.414;2023-02-01T10:50:29;8.10;73.30
61979;DHT22;47938;48.176;16.414;2023-02-01T10:53:03;8.10;72.50
61979;DHT22;47938;48.176;16.414;2023-02-01T10:55:40;8.20;71.80
61979;DHT22;47938;48.176;16.414;2023-02-01T10:58:25;8.20;72.70
61979;DHT22;47938;48.176;16.414;2023-02-01T11:01:08;8.00;72.80
61979;DHT22;47938;48.176;16.414;2023-02-01T11:03:41;8.00;75.00
61979;DHT22;47938;48.176;16.414;2023-02-01T11:06:17;7.80;77.80
61979;DHT22;47938;48.176;16.414;2023-02-01T11:08:52;8.00;80.40
61979;DHT22;47938;48.176;16.414;2023-02-01T11:11:20;7.70;81.40
61979;DHT22;47938;48.176;16.414;2023-02-01T11:14:01;7.70;81.70
61979;DHT22;47938;48.176;16.414;2023-02-01T11:16:38;7.60;80.80
61979;DHT22;47938;48.176;16.414;2023-02-01T11:19:05;7.70;84.40
61979;DHT22;47938;48.176;16.414;2023-02-01T11:21:32;7.80;84.60
61979;DHT22;47938;48.176;16.414;2023-02-01T11:24:05;7.70;86.10
61979;DHT22;47938;48.176;16.414;2023-02-01T11:26:31;7.60;89.20
61979;DHT22;47938;48.176;16.414;2023-02-01T11:31:26;7.00;91.80
61979;DHT22;47938;48.176;16.414;2023-02-01T11:33:57;6.80;93.20
61979;DHT22;47938;48.176;16.414;2023-02-01T11:36:28;6.70;94.80
61979;DHT22;47938;48.176;16.414;2023-02-01T11:39:20;6.50;96.80
61979;DHT22;47938;48.176;16.414;2023-02-01T11:44:37;6.20;99.80
61979;DHT22;47938;48.176;16.414;2023-02-01T11:49:44;6.00;99.90
61979;DHT22;47938;48.176;16.414;2023-02-01T12:06:23;6.10;99.90
61979;DHT22;47938;48.176;16.414;2023-02-01T12:12:08;6.20;99.90
61979;DHT22;47938;48.176;16.414;2023-02-01T12:15:12;6.20;99.90
61979;DHT22;47938;48.176;16.414;2023-02-01T12:33:47;6.70;99.90
61979;DHT22;47938;48.176;16.414;2023-02-01T12:36:22;6.90;99.90
61979;DHT22;47938;48.176;16.414;2023-02-01T12:42:01;7.30;98.20
61979;DHT22;47938;48.176;16.414;2023-02-01T12:47:34;7.50;96.20
61979;DHT22;47938;48.176;16.414;2023-02-01T12:50:05;7.40;97.50
61979;DHT22;47938;48.176;16.414;2023-02-01T12:52:47;7.50;95.30
61979;DHT22;47938;48.176;16.414;2023-02-01T12:55:23;7.70;93.20
61979;DHT22;47938;48.176;16.414;2023-02-01T12:58:06;7.80;92.00
61979;DHT22;47938;48.176;16.414;2023-02-01T13:00:44;8.10;90.10
61979;DHT22;47938;48.176;16.414;2023-02-01T13:06:08;8.10;85.00
61979;DHT22;47938;48.176;16.414;2023-02-01T13:11:35;8.00;82.20
61979;DHT22;47938;48.176;16.414;2023-02-01T13:16:43;8.10;79.40
61979;DHT22;47938;48.176;16.414;2023-02-01T13:19:12;8.20;79.80
61979;DHT22;47938;48.176;16.414;2023-02-01T13:21:43;8.30;78.20
61979;DHT22;47938;48.176;16.414;2023-02-01T13:24:27;8.20;77.90
61979;DHT22;47938;48.176;16.414;2023-02-01T13:26:54;8.10;79.50
61979;DHT22;47938;48.176;16.414;2023-02-01T13:29:21;8.30;77.40
61979;DHT22;47938;48.176;16.414;2023-02-01T13:42:23;8.10;73.50
61979;DHT22;47938;48.176;16.414;2023-02-01T13:45:03;8.00;72.00
61979;DHT22;47938;48.176;16.414;2023-02-01T13:47:31;8.00;71.10
61979;DHT22;47938;48.176;16.414;2023-02-01T13:50:00;7.90;68.10
61979;DHT22;47938;48.176;16.414;2023-02-01T13:52:44;7.80;69.40
61979;DHT22;47938;48.176;16.414;2023-02-01T13:57:46;7.70;71.50
61979;DHT22;47938;48.176;16.414;2023-02-01T14:10:59;7.30;74.60
61979;DHT22;47938;48.176;16.414;2023-02-01T14:23:42;7.10;76.30
61979;DHT22;47938;48.176;16.414;2023-02-01T14:26:12;7.00;76.70
61979;DHT22;47938;48.176;16.414;2023-02-01T14:28:57;7.00;77.90
61979;DHT22;47938;48.176;16.414;2023-02-01T14:37:02;6.80;76.40
61979;DHT22;47938;48.176;16.414;2023-02-01T14:42:05;6.60;76.50
61979;DHT22;47938;48.176;16.414;2023-02-01T14:44:34;6.50;78.20
61979;DHT22;47938;48.176;16.414;2023-02-01T14:47:07;6.40;78.60
61979;DHT22;47938;48.176;16.414;2023-02-01T14:49:39;6.30;79.50
61979;DHT22;47938;48.176;16.414;2023-02-01T14:52:17;6.30;81.30
61979;DHT22;47938;48.176;16.414;2023-02-01T14:54:47;6.20;81.30
61979;DHT22;47938;48.176;16.414;2023-02-01T14:57:17;6.30;82.30
61979;DHT22;47938;48.176;16.414;2023-02-01T14:59:45;6.30;82.00
61979;DHT22;47938;48.176;16.414;2023-02-01T15:02:24;6.20;82.70
61979;DHT22;47938;48.176;16.414;2023-02-01T15:04:57;6.20;83.40
61979;DHT22;47938;48.176;16.414;2023-02-01T15:07:24;6.20;83.20
61979;DHT22;47938;48.176;16.414;2023-02-01T15:09:53;6.10;83.90
61979;DHT22;47938;48.176;16.414;2023-02-01T15:12:29;6.10;83.10
61979;DHT22;47938;48.176;16.414;2023-02-01T15:15:16;6.10;83.50
61979;DHT22;47938;48.176;16.414;2023-02-01T15:17:49;6.00;85.20
61979;DHT22;47938;48.176;16.414;2023-02-01T15:20:24;6.00;85.70
61979;DHT22;47938;48.176;16.414;2023-02-01T15:23:04;6.00;85.50
61979;DHT22;47938;48.176;16.414;2023-02-01T15:25:33;5.90;87.70
61979;DHT22;47938;48.176;16.414;2023-02-01T15:27:58;5.80;89.50
61979;DHT22;47938;48.176;16.414;2023-02-01T15:30:29;5.90;89.80
61979;DHT22;47938;48.176;16.414;2023-02-01T15:33:17;5.80;89.80
61979;DHT22;47938;48.176;16.414;2023-02-01T15:35:48;5.80;90.20
61979;DHT22;47938;48.176;16.414;2023-02-01T15:41:17;5.70;90.70
61979;DHT22;47938;48.176;16.414;2023-02-01T15:46:29;5.70;90.50
61979;DHT22;47938;48.176;16.414;2023-02-01T15:48:56;5.60;90.20
61979;DHT22;47938;48.176;16.414;2023-02-01T15:51:24;5.60;89.60
61979;DHT22;47938;48.176;16.414;2023-02-01T15:54:05;5.60;88.00
61979;DHT22;47938;48.176;16.414;2023-02-01T15:56:40;5.60;87.10
61979;DHT22;47938;48.176;16.414;2023-02-01T15:59:14;5.70;85.90
61979;DHT22;47938;48.176;16.414;2023-02-01T16:01:40;5.60;83.60
61979;DHT22;47938;48.176;16.414;2023-02-01T16:04:22;5.60;82.60
61979;DHT22;47938;48.176;16.414;2023-02-01T16:06:58;5.60;83.40
61979;DHT22;47938;48.176;16.414;2023-02-01T16:09:35;5.60;81.50
61979;DHT22;47938;48.176;16.414;2023-02-01T16:12:03;5.60;80.20
61979;DHT22;47938;48.176;16.414;2023-02-01T16:14:29;5.60;79.80
61979;DHT22;47938;48.176;16.414;2023-02-01T16:16:57;5.50;80.00
61979;DHT22;47938;48.176;16.414;2023-02-01T16:19:23;5.60;78.40
61979;DHT22;47938;48.176;16.414;2023-02-01T16:21:49;5.60;78.00
61979;DHT22;47938;48.176;16.414;2023-02-01T16:24:15;5.60;77.70
61979;DHT22;47938;48.176;16.414;2023-02-01T16:26:40;5.60;78.00
61979;DHT22;47938;48.176;16.414;2023-02-01T16:29:06;5.60;78.20
61979;DHT22;47938;48.176;16.414;2023-02-01T16:31:37;5.70;78.10
61979;DHT22;47938;48.176;16.414;2023-02-01T16:34:03;5.70;78.40
61979;DHT22;47938;48.176;16.414;2023-02-01T16:36:29;5.80;78.20
61979;DHT22;47938;48.176;16.414;2023-02-01T16:38:55;5.70;78.20
61979;DHT22;47938;48.176;16.414;2023-02-01T16:41:22;5.70;78.60
61979;DHT22;47938;48.176;16.414;2023-02-01T16:43:53;5.80;78.60
61979;DHT22;47938;48.176;16.414;2023-02-01T16:46:21;5.80;78.10
61979;DHT22;47938;48.176;16.414;2023-02-01T16:48:57;5.80;78.10
61979;DHT22;47938;48.176;16.414;2023-02-01T16:51:25;5.80;79.80
61979;DHT22;47938;48.176;16.414;2023-02-01T16:53:52;5.80;79.10
61979;DHT22;47938;48.176;16.414;2023-02-01T16:56:20;5.90;79.10
61979;DHT22;47938;48.176;16.414;2023-02-01T16:58:46;5.90;79.60
61979;DHT22;47938;48.176;16.414;2023-02-01T17:01:14;5.80;80.10
61979;DHT22;47938;48.176;16.414;2023-02-01T17:03:41;5.90;81.10
61979;DHT22;47938;48.176;16.414;2023-02-01T17:06:08;5.80;82.10
61979;DHT22;47938;48.176;16.414;2023-02-01T17:08:38;5.80;82.30
61979;DHT22;47938;48.176;16.414;2023-02-01T17:11:06;5.90;82.20
61979;DHT22;47938;48.176;16.414;2023-02-01T17:13:33;5.80;83.50
61979;DHT22;47938;48.176;16.414;2023-02-01T17:16:19;5.80;83.80
61979;DHT22;47938;48.176;16.414;2023-02-01T17:18:58;5.80;84.30
61979;DHT22;47938;48.176;16.414;2023-02-01T17:21:27;5.80;85.80
61979;DHT22;47938;48.176;16.414;2023-02-01T17:23:54;5.90;85.90
61979;DHT22;47938;48.176;16.414;2023-02-01T17:26:20;5.90;85.40
61979;DHT22;47938;48.176;16.414;2023-02-01T17:28:46;5.90;85.60
61979;DHT22;47938;48.176;16.414;2023-02-01T17:31:14;5.90;86.80
61979;DHT22;47938;48.176;16.414;2023-02-01T17:33:40;5.90;87.60
61979;DHT22;47938;48.176;16.414;2023-02-01T17:36:08;5.80;88.30
61979;DHT22;47938;48.176;16.414;2023-02-01T17:38:35;5.90;87.90
61979;DHT22;47938;48.176;16.414;2023-02-01T17:41:01;5.90;88.20
61979;DHT22;47938;48.176;16.414;2023-02-01T17:43:27;5.90;87.90
61979;DHT22;47938;48.176;16.414;2023-02-01T17:46:03;5.80;88.80
61979;DHT22;47938;48.176;16.414;2023-02-01T17:48:30;5.80;88.70
61979;DHT22;47938;48.176;16.414;2023-02-01T17:50:56;5.80;88.70
61979;DHT22;47938;48.176;16.414;2023-02-01T17:53:21;5.80;87.60
61979;DHT22;47938;48.176;16.414;2023-02-01T17:55:47;5.70;88.90
61979;DHT22;47938;48.176;16.414;2023-02-01T17:58:14;5.70;88.50
61979;DHT22;47938;48.176;16.414;2023-02-01T18:00:41;5.70;89.20
61979;DHT22;47938;48.176;16.414;2023-02-01T18:05:44;5.60;90.20
61979;DHT22;47938;48.176;16.414;2023-02-01T18:08:10;5.60;90.00